sensor_id;sensor_type;location;lat;lon;timestamp;P1;durP1;ratioP1;P2;durP2;ratioP2
60714;SDS011;46564;53.096;8.246;2022-08-19T00:01:06;12.20;;;6.03;;
60714;SDS011;46564;53.096;8.246;2022-08-19T00:06:08;12.73;;;6.13;;
60714;SDS011;46564;53.096;8.246;2022-08-19T00:11:10;10.77;;;6.25;;
60714;SDS011;46564;53.096;8.246;2022-08-19T00:16:19;11.98;;;6.90;;
60714;SDS011;46564;53.096;8.246;2022-08-19T00:21:27;13.52;;;6.95;;
60714;SDS011;46564;53.096;8.246;2022-08-19T00:26:28;12.52;;;6.30;;
60714;SDS011;46564;53.096;8.246;2022-08-19T00:31:30;10.45;;;6.07;;
60714;SDS011;46564;53.096;8.246;2022-08-19T00:36:32;11.40;;;6.47;;
60714;SDS011;46564;53.096;8.246;2022-08-19T00:41:34;13.05;;;6.00;;
60714;SDS011;46564;53.096;8.246;2022-08-19T00:46:37;10.77;;;5.57;;
60714;SDS011;46564;53.096;8.246;2022-08-19T00:51:41;10.65;;;5.90;;
60714;SDS011;46564;53.096;8.246;2022-08-19T00:56:45;8.70;;;4.95;;
60714;SDS011;46564;53.096;8.246;2022-08-19T01:01:47;11.75;;;5.63;;
60714;SDS011;46564;53.096;8.246;2022-08-19T01:06:49;9.48;;;4.82;;
60714;SDS011;46564;53.096;8.246;2022-08-19T01:11:50;10.20;;;5.78;;
60714;SDS011;46564;53.096;8.246;2022-08-19T01:16:53;11.43;;;5.65;;
60714;SDS011;46564;53.096;8.246;2022-08-19T01:22:01;11.73;;;5.38;;
60714;SDS011;46564;53.096;8.246;2022-08-19T01:27:14;13.27;;;6.25;;
60714;SDS011;46564;53.096;8.246;2022-08-19T01:32:16;13.65;;;7.20;;
60714;SDS011;46564;53.096;8.246;2022-08-19T01:37:53;13.90;;;6.72;;
60714;SDS011;46564;53.096;8.246;2022-08-19T01:42:58;15.48;;;6.55;;
60714;SDS011;46564;53.096;8.246;2022-08-19T01:48:01;13.57;;;6.68;;
60714;SDS011;46564;53.096;8.246;2022-08-19T01:53:04;11.57;;;6.40;;
60714;SDS011;46564;53.096;8.246;2022-08-19T01:58:15;12.90;;;6.00;;
60714;SDS011;46564;53.096;8.246;2022-08-19T02:03:22;11.38;;;5.60;;
60714;SDS011;46564;53.096;8.246;2022-08-19T02:08:25;11.80;;;5.90;;
60714;SDS011;46564;53.096;8.246;2022-08-19T02:13:28;19.55;;;5.53;;
60714;SDS011;46564;53.096;8.246;2022-08-19T02:18:29;12.00;;;5.03;;
60714;SDS011;46564;53.096;8.246;2022-08-19T02:23:31;13.13;;;6.40;;
60714;SDS011;46564;53.096;8.246;2022-08-19T02:28:32;16.25;;;7.38;;
60714;SDS011;46564;53.096;8.246;2022-08-19T02:33:34;20.63;;;6.20;;
60714;SDS011;46564;53.096;8.246;2022-08-19T02:38:36;11.57;;;6.25;;
60714;SDS011;46564;53.096;8.246;2022-08-19T02:43:38;12.90;;;5.60;;
60714;SDS011;46564;53.096;8.246;2022-08-19T02:49:02;25.67;;;5.68;;
60714;SDS011;46564;53.096;8.246;2022-08-19T02:54:06;11.38;;;4.80;;
60714;SDS011;46564;53.096;8.246;2022-08-19T02:59:09;11.55;;;4.28;;
60714;SDS011;46564;53.096;8.246;2022-08-19T03:04:14;26.38;;;4.60;;
60714;SDS011;46564;53.096;8.246;2022-08-19T03:09:18;18.15;;;4.30;;
60714;SDS011;46564;53.096;8.246;2022-08-19T03:14:20;16.45;;;4.60;;
60714;SDS011;46564;53.096;8.246;2022-08-19T03:19:22;19.70;;;5.43;;
60714;SDS011;46564;53.096;8.246;2022-08-19T03:24:23;8.90;;;4.55;;
60714;SDS011;46564;53.096;8.246;2022-08-19T03:29:26;14.70;;;4.80;;
60714;SDS011;46564;53.096;8.246;2022-08-19T03:34:31;11.38;;;4.75;;
60714;SDS011;46564;53.096;8.246;2022-08-19T03:39:36;13.57;;;5.45;;
60714;SDS011;46564;53.096;8.246;2022-08-19T03:44:39;21.45;;;4.78;;
60714;SDS011;46564;53.096;8.246;2022-08-19T03:49:40;11.80;;;5.50;;
60714;SDS011;46564;53.096;8.246;2022-08-19T03:54:42;11.95;;;5.50;;
60714;SDS011;46564;53.096;8.246;2022-08-19T03:59:44;14.23;;;4.72;;
60714;SDS011;46564;53.096;8.246;2022-08-19T04:04:45;14.48;;;6.18;;
60714;SDS011;46564;53.096;8.246;2022-08-19T04:09:47;28.85;;;7.55;;
60714;SDS011;46564;53.096;8.246;2022-08-19T04:14:50;15.65;;;6.25;;
60714;SDS011;46564;53.096;8.246;2022-08-19T04:19:51;18.52;;;7.00;;
60714;SDS011;46564;53.096;8.246;2022-08-19T04:24:53;19.83;;;7.38;;
60714;SDS011;46564;53.096;8.246;2022-08-19T04:29:54;14.05;;;6.60;;
60714;SDS011;46564;53.096;8.246;2022-08-19T04:34:56;13.77;;;6.47;;
60714;SDS011;46564;53.096;8.246;2022-08-19T04:40:16;17.27;;;6.43;;
60714;SDS011;46564;53.096;8.246;2022-08-19T04:45:36;20.17;;;7.40;;
60714;SDS011;46564;53.096;8.246;2022-08-19T04:50:44;16.58;;;6.97;;
60714;SDS011;46564;53.096;8.246;2022-08-19T04:55:45;17.08;;;6.70;;
60714;SDS011;46564;53.096;8.246;2022-08-19T05:00:47;18.15;;;7.38;;
60714;SDS011;46564;53.096;8.246;2022-08-19T05:05:49;19.58;;;7.13;;
60714;SDS011;46564;53.096;8.246;2022-08-19T05:10:50;16.27;;;7.85;;
60714;SDS011;46564;53.096;8.246;2022-08-19T05:15:53;15.23;;;7.35;;
60714;SDS011;46564;53.096;8.246;2022-08-19T05:20:56;16.05;;;6.82;;
60714;SDS011;46564;53.096;8.246;2022-08-19T05:26:16;15.65;;;7.20;;
60714;SDS011;46564;53.096;8.246;2022-08-19T05:31:18;17.00;;;7.25;;
60714;SDS011;46564;53.096;8.246;2022-08-19T05:36:20;18.65;;;7.60;;
60714;SDS011;46564;53.096;8.246;2022-08-19T05:41:21;13.50;;;6.70;;
60714;SDS011;46564;53.096;8.246;2022-08-19T05:46:30;12.15;;;6.60;;
60714;SDS011;46564;53.096;8.246;2022-08-19T05:51:32;13.43;;;6.63;;
60714;SDS011;46564;53.096;8.246;2022-08-19T05:56:35;13.43;;;6.60;;
60714;SDS011;46564;53.096;8.246;2022-08-19T06:01:41;12.75;;;6.90;;
60714;SDS011;46564;53.096;8.246;2022-08-19T06:06:44;21.15;;;7.47;;
60714;SDS011;46564;53.096;8.246;2022-08-19T06:11:48;13.52;;;6.50;;
60714;SDS011;46564;53.096;8.246;2022-08-19T06:16:54;17.02;;;6.07;;
60714;SDS011;46564;53.096;8.246;2022-08-19T06:21:56;14.93;;;5.80;;
60714;SDS011;46564;53.096;8.246;2022-08-19T06:27:00;11.13;;;5.00;;
60714;SDS011;46564;53.096;8.246;2022-08-19T06:32:03;12.80;;;5.50;;
60714;SDS011;46564;53.096;8.246;2022-08-19T06:37:05;13.93;;;4.70;;
60714;SDS011;46564;53.096;8.246;2022-08-19T06:42:07;9.40;;;4.35;;
60714;SDS011;46564;53.096;8.246;2022-08-19T06:47:13;8.77;;;3.78;;
60714;SDS011;46564;53.096;8.246;2022-08-19T06:52:25;8.45;;;3.65;;
60714;SDS011;46564;53.096;8.246;2022-08-19T06:57:27;8.45;;;4.00;;
60714;SDS011;46564;53.096;8.246;2022-08-19T07:02:32;9.30;;;3.63;;
60714;SDS011;46564;53.096;8.246;2022-08-19T07:07:33;7.65;;;3.15;;
60714;SDS011;46564;53.096;8.246;2022-08-19T07:12:35;5.10;;;2.30;;
60714;SDS011;46564;53.096;8.246;2022-08-19T07:17:38;5.10;;;1.80;;
60714;SDS011;46564;53.096;8.246;2022-08-19T07:22:42;4.82;;;2.30;;
60714;SDS011;46564;53.096;8.246;2022-08-19T07:27:43;4.22;;;2.40;;
60714;SDS011;46564;53.096;8.246;2022-08-19T07:32:46;2.53;;;1.27;;
60714;SDS011;46564;53.096;8.246;2022-08-19T07:37:50;6.13;;;1.80;;
60714;SDS011;46564;53.096;8.246;2022-08-19T07:42:54;4.00;;;1.80;;
60714;SDS011;46564;53.096;8.246;2022-08-19T07:47:56;3.38;;;1.35;;
60714;SDS011;46564;53.096;8.246;2022-08-19T07:52:57;5.50;;;1.40;;
60714;SDS011;46564;53.096;8.246;2022-08-19T07:57:59;2.92;;;1.50;;
60714;SDS011;46564;53.096;8.246;2022-08-19T08:03:03;3.13;;;1.50;;
60714;SDS011;46564;53.096;8.246;2022-08-19T08:08:05;4.38;;;2.03;;
60714;SDS011;46564;53.096;8.246;2022-08-19T08:13:28;4.15;;;1.58;;
60714;SDS011;46564;53.096;8.246;2022-08-19T08:18:29;3.63;;;1.60;;
60714;SDS011;46564;53.096;8.246;2022-08-19T08:23:32;5.13;;;1.45;;
60714;SDS011;46564;53.096;8.246;2022-08-19T08:28:33;4.72;;;2.47;;
60714;SDS011;46564;53.096;8.246;2022-08-19T08:33:35;4.90;;;1.80;;
60714;SDS011;46564;53.096;8.246;2022-08-19T08:38:38;6.57;;;1.88;;
60714;SDS011;46564;53.096;8.246;2022-08-19T08:43:44;3.33;;;1.50;;
60714;SDS011;46564;53.096;8.246;2022-08-19T08:49:04;3.33;;;1.48;;
60714;SDS011;46564;53.096;8.246;2022-08-19T08:54:19;7.15;;;1.58;;
60714;SDS011;46564;53.096;8.246;2022-08-19T08:59:29;4.37;;;1.33;;
60714;SDS011;46564;53.096;8.246;2022-08-19T09:04:35;3.72;;;1.55;;
60714;SDS011;46564;53.096;8.246;2022-08-19T09:09:39;4.68;;;1.60;;
60714;SDS011;46564;53.096;8.246;2022-08-19T09:24:58;4.15;;;1.70;;
60714;SDS011;46564;53.096;8.246;2022-08-19T09:30:00;4.35;;;1.40;;
60714;SDS011;46564;53.096;8.246;2022-08-19T09:35:02;3.17;;;1.67;;
60714;SDS011;46564;53.096;8.246;2022-08-19T09:40:09;5.70;;;1.50;;
60714;SDS011;46564;53.096;8.246;2022-08-19T09:45:15;8.10;;;1.80;;
60714;SDS011;46564;53.096;8.246;2022-08-19T09:50:18;8.25;;;1.90;;
60714;SDS011;46564;53.096;8.246;2022-08-19T09:55:19;7.20;;;1.70;;
60714;SDS011;46564;53.096;8.246;2022-08-19T10:00:21;16.77;;;3.00;;
60714;SDS011;46564;53.096;8.246;2022-08-19T10:05:22;5.50;;;1.40;;
60714;SDS011;46564;53.096;8.246;2022-08-19T10:10:43;3.60;;;1.50;;
60714;SDS011;46564;53.096;8.246;2022-08-19T10:15:47;3.22;;;1.58;;
60714;SDS011;46564;53.096;8.246;2022-08-19T10:20:50;3.95;;;1.52;;
60714;SDS011;46564;53.096;8.246;2022-08-19T10:25:53;4.97;;;1.60;;
60714;SDS011;46564;53.096;8.246;2022-08-19T10:30:54;2.70;;;1.23;;
60714;SDS011;46564;53.096;8.246;2022-08-19T10:35:59;1.63;;;1.17;;
60714;SDS011;46564;53.096;8.246;2022-08-19T10:41:17;4.78;;;1.48;;
60714;SDS011;46564;53.096;8.246;2022-08-19T10:46:21;2.67;;;1.17;;
60714;SDS011;46564;53.096;8.246;2022-08-19T10:51:25;3.58;;;1.20;;
60714;SDS011;46564;53.096;8.246;2022-08-19T10:56:48;2.97;;;1.30;;
60714;SDS011;46564;53.096;8.246;2022-08-19T11:01:53;4.10;;;1.40;;
60714;SDS011;46564;53.096;8.246;2022-08-19T11:06:59;5.95;;;1.33;;
60714;SDS011;46564;53.096;8.246;2022-08-19T11:12:01;3.65;;;1.20;;
60714;SDS011;46564;53.096;8.246;2022-08-19T11:17:05;2.78;;;1.17;;
60714;SDS011;46564;53.096;8.246;2022-08-19T11:22:10;3.70;;;1.10;;
60714;SDS011;46564;53.096;8.246;2022-08-19T11:27:16;2.10;;;1.17;;
60714;SDS011;46564;53.096;8.246;2022-08-19T11:32:17;2.25;;;1.20;;
60714;SDS011;46564;53.096;8.246;2022-08-19T11:37:19;1.65;;;1.15;;
60714;SDS011;46564;53.096;8.246;2022-08-19T11:42:24;3.95;;;1.30;;
60714;SDS011;46564;53.096;8.246;2022-08-19T11:47:44;2.70;;;1.40;;
60714;SDS011;46564;53.096;8.246;2022-08-19T11:52:47;1.52;;;1.02;;
60714;SDS011;46564;53.096;8.246;2022-08-19T11:57:50;4.93;;;1.77;;
60714;SDS011;46564;53.096;8.246;2022-08-19T12:02:52;3.38;;;1.50;;
60714;SDS011;46564;53.096;8.246;2022-08-19T12:07:53;3.33;;;1.25;;
60714;SDS011;46564;53.096;8.246;2022-08-19T12:12:55;2.08;;;1.20;;
60714;SDS011;46564;53.096;8.246;2022-08-19T12:17:59;1.65;;;1.10;;
60714;SDS011;46564;53.096;8.246;2022-08-19T12:23:00;2.80;;;1.33;;
60714;SDS011;46564;53.096;8.246;2022-08-19T12:28:02;2.22;;;1.30;;
60714;SDS011;46564;53.096;8.246;2022-08-19T12:33:05;3.10;;;1.50;;
60714;SDS011;46564;53.096;8.246;2022-08-19T12:38:06;2.05;;;1.20;;
60714;SDS011;46564;53.096;8.246;2022-08-19T12:43:08;2.75;;;1.20;;
60714;SDS011;46564;53.096;8.246;2022-08-19T12:48:09;1.83;;;1.15;;
60714;SDS011;46564;53.096;8.246;2022-08-19T12:53:31;2.30;;;1.20;;
60714;SDS011;46564;53.096;8.246;2022-08-19T12:58:34;2.05;;;1.20;;
60714;SDS011;46564;53.096;8.246;2022-08-19T13:03:36;2.35;;;1.27;;
60714;SDS011;46564;53.096;8.246;2022-08-19T13:08:41;2.75;;;1.30;;
60714;SDS011;46564;53.096;8.246;2022-08-19T13:13:47;3.63;;;1.30;;
60714;SDS011;46564;53.096;8.246;2022-08-19T13:18:52;2.22;;;1.10;;
60714;SDS011;46564;53.096;8.246;2022-08-19T13:23:54;5.25;;;1.40;;
60714;SDS011;46564;53.096;8.246;2022-08-19T13:28:55;4.25;;;1.40;;
60714;SDS011;46564;53.096;8.246;2022-08-19T13:34:16;3.72;;;1.60;;
60714;SDS011;46564;53.096;8.246;2022-08-19T13:39:20;2.83;;;1.50;;
60714;SDS011;46564;53.096;8.246;2022-08-19T13:44:24;4.32;;;1.50;;
60714;SDS011;46564;53.096;8.246;2022-08-19T13:49:27;3.50;;;1.52;;
60714;SDS011;46564;53.096;8.246;2022-08-19T13:54:31;3.60;;;2.10;;
60714;SDS011;46564;53.096;8.246;2022-08-19T13:59:33;2.60;;;1.50;;
60714;SDS011;46564;53.096;8.246;2022-08-19T14:04:35;2.50;;;1.50;;
60714;SDS011;46564;53.096;8.246;2022-08-19T14:09:36;3.63;;;1.52;;
60714;SDS011;46564;53.096;8.246;2022-08-19T14:14:38;2.17;;;1.40;;
60714;SDS011;46564;53.096;8.246;2022-08-19T14:19:41;2.05;;;1.30;;
60714;SDS011;46564;53.096;8.246;2022-08-19T14:24:48;3.88;;;1.50;;
60714;SDS011;46564;53.096;8.246;2022-08-19T14:29:51;3.08;;;1.35;;
60714;SDS011;46564;53.096;8.246;2022-08-19T14:34:53;2.40;;;1.40;;
60714;SDS011;46564;53.096;8.246;2022-08-19T14:39:55;2.92;;;1.50;;
60714;SDS011;46564;53.096;8.246;2022-08-19T14:44:58;2.85;;;1.67;;
60714;SDS011;46564;53.096;8.246;2022-08-19T14:50:00;3.60;;;1.90;;
60714;SDS011;46564;53.096;8.246;2022-08-19T14:55:05;4.68;;;1.77;;
60714;SDS011;46564;53.096;8.246;2022-08-19T15:00:08;3.45;;;1.90;;
60714;SDS011;46564;53.096;8.246;2022-08-19T15:05:14;3.53;;;1.75;;
60714;SDS011;46564;53.096;8.246;2022-08-19T15:10:15;5.88;;;1.90;;
60714;SDS011;46564;53.096;8.246;2022-08-19T15:15:17;2.88;;;1.60;;
60714;SDS011;46564;53.096;8.246;2022-08-19T15:20:20;4.07;;;1.92;;
60714;SDS011;46564;53.096;8.246;2022-08-19T15:25:23;5.32;;;1.90;;
60714;SDS011;46564;53.096;8.246;2022-08-19T15:30:25;3.42;;;1.92;;
60714;SDS011;46564;53.096;8.246;2022-08-19T15:35:29;3.95;;;1.75;;
60714;SDS011;46564;53.096;8.246;2022-08-19T15:40:31;3.85;;;1.90;;
60714;SDS011;46564;53.096;8.246;2022-08-19T15:45:33;3.03;;;2.10;;
60714;SDS011;46564;53.096;8.246;2022-08-19T15:50:34;4.30;;;2.20;;
60714;SDS011;46564;53.096;8.246;2022-08-19T15:55:41;5.30;;;2.22;;
60714;SDS011;46564;53.096;8.246;2022-08-19T16:00:44;4.43;;;2.10;;
60714;SDS011;46564;53.096;8.246;2022-08-19T16:06:13;4.28;;;2.38;;
60714;SDS011;46564;53.096;8.246;2022-08-19T16:11:27;5.03;;;2.00;;
60714;SDS011;46564;53.096;8.246;2022-08-19T16:16:32;4.38;;;1.75;;
60714;SDS011;46564;53.096;8.246;2022-08-19T16:21:35;3.72;;;1.77;;
60714;SDS011;46564;53.096;8.246;2022-08-19T16:26:41;6.53;;;1.70;;
60714;SDS011;46564;53.096;8.246;2022-08-19T16:31:44;3.15;;;1.58;;
60714;SDS011;46564;53.096;8.246;2022-08-19T16:36:46;2.65;;;1.52;;
60714;SDS011;46564;53.096;8.246;2022-08-19T16:41:48;3.78;;;1.60;;
60714;SDS011;46564;53.096;8.246;2022-08-19T16:46:51;8.07;;;1.50;;
60714;SDS011;46564;53.096;8.246;2022-08-19T16:51:59;6.13;;;1.58;;
60714;SDS011;46564;53.096;8.246;2022-08-19T16:57:03;4.45;;;1.60;;
60714;SDS011;46564;53.096;8.246;2022-08-19T17:07:14;8.55;;;2.25;;
60714;SDS011;46564;53.096;8.246;2022-08-19T17:12:16;3.38;;;1.38;;
60714;SDS011;46564;53.096;8.246;2022-08-19T17:17:18;3.65;;;1.42;;
60714;SDS011;46564;53.096;8.246;2022-08-19T17:22:25;4.75;;;1.73;;
60714;SDS011;46564;53.096;8.246;2022-08-19T17:27:27;3.45;;;1.65;;
60714;SDS011;46564;53.096;8.246;2022-08-19T17:32:32;5.93;;;1.75;;
60714;SDS011;46564;53.096;8.246;2022-08-19T17:37:36;6.82;;;1.58;;
60714;SDS011;46564;53.096;8.246;2022-08-19T17:42:37;5.38;;;1.67;;
60714;SDS011;46564;53.096;8.246;2022-08-19T17:47:40;5.05;;;1.90;;
60714;SDS011;46564;53.096;8.246;2022-08-19T17:52:41;5.65;;;2.05;;
60714;SDS011;46564;53.096;8.246;2022-08-19T17:57:44;6.38;;;2.38;;
60714;SDS011;46564;53.096;8.246;2022-08-19T18:02:48;4.25;;;1.90;;
60714;SDS011;46564;53.096;8.246;2022-08-19T18:07:52;3.90;;;2.00;;
60714;SDS011;46564;53.096;8.246;2022-08-19T18:12:54;6.72;;;2.00;;
60714;SDS011;46564;53.096;8.246;2022-08-19T18:17:56;5.82;;;1.90;;
60714;SDS011;46564;53.096;8.246;2022-08-19T18:22:58;9.60;;;2.30;;
60714;SDS011;46564;53.096;8.246;2022-08-19T18:28:20;10.70;;;3.80;;
60714;SDS011;46564;53.096;8.246;2022-08-19T18:33:23;8.85;;;3.42;;
60714;SDS011;46564;53.096;8.246;2022-08-19T18:38:25;8.77;;;3.50;;
60714;SDS011;46564;53.096;8.246;2022-08-19T18:43:46;10.50;;;2.95;;
60714;SDS011;46564;53.096;8.246;2022-08-19T18:49:06;7.10;;;2.50;;
60714;SDS011;46564;53.096;8.246;2022-08-19T18:54:09;5.15;;;2.53;;
60714;SDS011;46564;53.096;8.246;2022-08-19T18:59:11;8.10;;;2.30;;
60714;SDS011;46564;53.096;8.246;2022-08-19T19:04:14;4.63;;;2.17;;
60714;SDS011;46564;53.096;8.246;2022-08-19T19:09:17;7.82;;;3.28;;
60714;SDS011;46564;53.096;8.246;2022-08-19T19:14:24;6.13;;;3.28;;
60714;SDS011;46564;53.096;8.246;2022-08-19T19:19:49;7.43;;;4.03;;
60714;SDS011;46564;53.096;8.246;2022-08-19T19:24:51;6.47;;;3.70;;
60714;SDS011;46564;53.096;8.246;2022-08-19T19:29:54;8.00;;;4.13;;
60714;SDS011;46564;53.096;8.246;2022-08-19T19:34:57;7.10;;;4.35;;
60714;SDS011;46564;53.096;8.246;2022-08-19T19:39:59;9.35;;;4.20;;
60714;SDS011;46564;53.096;8.246;2022-08-19T19:45:01;8.57;;;4.53;;
60714;SDS011;46564;53.096;8.246;2022-08-19T19:50:03;10.93;;;5.57;;
60714;SDS011;46564;53.096;8.246;2022-08-19T19:55:15;9.32;;;5.18;;
60714;SDS011;46564;53.096;8.246;2022-08-19T20:00:20;11.10;;;5.50;;
60714;SDS011;46564;53.096;8.246;2022-08-19T20:05:22;10.57;;;5.25;;
60714;SDS011;46564;53.096;8.246;2022-08-19T20:10:24;12.18;;;5.20;;
60714;SDS011;46564;53.096;8.246;2022-08-19T20:15:27;8.18;;;4.93;;
60714;SDS011;46564;53.096;8.246;2022-08-19T20:20:32;10.82;;;5.78;;
60714;SDS011;46564;53.096;8.246;2022-08-19T20:26:07;11.38;;;5.60;;
60714;SDS011;46564;53.096;8.246;2022-08-19T20:31:21;9.57;;;5.30;;
60714;SDS011;46564;53.096;8.246;2022-08-19T20:36:28;10.05;;;5.20;;
60714;SDS011;46564;53.096;8.246;2022-08-19T20:41:29;9.80;;;5.07;;
60714;SDS011;46564;53.096;8.246;2022-08-19T20:46:33;11.50;;;4.82;;
60714;SDS011;46564;53.096;8.246;2022-08-19T20:51:34;9.40;;;5.28;;
60714;SDS011;46564;53.096;8.246;2022-08-19T20:56:36;8.93;;;5.63;;
60714;SDS011;46564;53.096;8.246;2022-08-19T21:01:39;12.48;;;4.80;;
60714;SDS011;46564;53.096;8.246;2022-08-19T21:06:41;8.48;;;5.32;;
60714;SDS011;46564;53.096;8.246;2022-08-19T21:11:46;10.63;;;4.88;;
60714;SDS011;46564;53.096;8.246;2022-08-19T21:16:47;8.38;;;5.10;;
60714;SDS011;46564;53.096;8.246;2022-08-19T21:21:50;9.35;;;5.15;;
60714;SDS011;46564;53.096;8.246;2022-08-19T21:26:52;8.98;;;5.25;;
60714;SDS011;46564;53.096;8.246;2022-08-19T21:31:54;9.88;;;5.10;;
60714;SDS011;46564;53.096;8.246;2022-08-19T21:36:56;8.98;;;5.00;;
60714;SDS011;46564;53.096;8.246;2022-08-19T21:42:01;9.63;;;5.05;;
60714;SDS011;46564;53.096;8.246;2022-08-19T21:47:03;11.30;;;5.18;;
60714;SDS011;46564;53.096;8.246;2022-08-19T21:52:09;7.82;;;4.55;;
60714;SDS011;46564;53.096;8.246;2022-08-19T21:57:10;8.10;;;4.30;;
60714;SDS011;46564;53.096;8.246;2022-08-19T22:02:12;7.63;;;4.05;;
60714;SDS011;46564;53.096;8.246;2022-08-19T22:07:25;8.23;;;4.00;;
60714;SDS011;46564;53.096;8.246;2022-08-19T22:12:28;8.32;;;4.28;;
60714;SDS011;46564;53.096;8.246;2022-08-19T22:17:32;9.07;;;4.60;;
60714;SDS011;46564;53.096;8.246;2022-08-19T22:22:34;10.55;;;4.80;;
60714;SDS011;46564;53.096;8.246;2022-08-19T22:27:35;7.97;;;4.30;;
60714;SDS011;46564;53.096;8.246;2022-08-19T22:32:37;8.43;;;4.43;;
60714;SDS011;46564;53.096;8.246;2022-08-19T22:37:39;7.50;;;4.30;;
60714;SDS011;46564;53.096;8.246;2022-08-19T22:42:43;12.25;;;4.45;;
60714;SDS011;46564;53.096;8.246;2022-08-19T22:47:45;7.45;;;3.78;;
60714;SDS011;46564;53.096;8.246;2022-08-19T22:52:46;9.73;;;5.20;;
60714;SDS011;46564;53.096;8.246;2022-08-19T22:57:52;13.45;;;7.38;;
60714;SDS011;46564;53.096;8.246;2022-08-19T23:02:55;10.82;;;7.10;;
60714;SDS011;46564;53.096;8.246;2022-08-19T23:07:57;13.13;;;7.38;;
60714;SDS011;46564;53.096;8.246;2022-08-19T23:12:59;13.32;;;7.63;;
60714;SDS011;46564;53.096;8.246;2022-08-19T23:18:01;15.65;;;8.60;;
60714;SDS011;46564;53.096;8.246;2022-08-19T23:23:05;13.48;;;8.55;;
60714;SDS011;46564;53.096;8.246;2022-08-19T23:28:10;15.35;;;9.52;;
60714;SDS011;46564;53.096;8.246;2022-08-19T23:33:58;14.23;;;9.43;;
60714;SDS011;46564;53.096;8.246;2022-08-19T23:39:06;16.80;;;9.50;;
60714;SDS011;46564;53.096;8.246;2022-08-19T23:44:10;14.25;;;9.23;;
60714;SDS011;46564;53.096;8.246;2022-08-19T23:49:19;17.00;;;8.95;;
60714;SDS011;46564;53.096;8.246;2022-08-19T23:54:24;14.98;;;8.77;;
60714;SDS011;46564;53.096;8.246;2022-08-19T23:59:44;10.88;;;5.70;;
